Terminal Aerodrome Forecast
Issued by NWS Detroit/Pontiac, MI

Home | Current Version | Previous Version | Text Only | Print | Product List | Glossary On
Versions: 1 2 3 4 5 6 7 8 9 10 11 12 13 14 15 16 17 18
000
FTUS43 KDTX 012111 AAA
TAFFNT
TAF AMD
KFNT 012111Z 0121/0218 30007KT P6SM BKN025
     FM012300 34005KT P6SM SCT040 BKN250
     FM020500 02004KT P6SM BKN020
     FM021200 04006KT P6SM BKN040=

USA.gov is the U.S. government's official web portal to all federal, state and local government web resources and services.